sensor_id;sensor_type;location;lat;lon;timestamp;P1;durP1;ratioP1;P2;durP2;ratioP2
25905;SDS011;13713;52.552;13.204;2024-01-07T00:00:02;15.05;;;8.90;;
25905;SDS011;13713;52.552;13.204;2024-01-07T00:02:29;15.77;;;9.20;;
25905;SDS011;13713;52.552;13.204;2024-01-07T00:04:56;17.08;;;8.77;;
25905;SDS011;13713;52.552;13.204;2024-01-07T00:07:22;17.33;;;8.88;;
25905;SDS011;13713;52.552;13.204;2024-01-07T00:09:48;15.48;;;9.00;;
25905;SDS011;13713;52.552;13.204;2024-01-07T00:12:14;17.85;;;9.07;;
25905;SDS011;13713;52.552;13.204;2024-01-07T00:14:40;12.77;;;8.30;;
25905;SDS011;13713;52.552;13.204;2024-01-07T00:17:05;17.35;;;9.57;;
25905;SDS011;13713;52.552;13.204;2024-01-07T00:19:31;14.50;;;9.07;;
25905;SDS011;13713;52.552;13.204;2024-01-07T00:21:57;15.15;;;8.68;;
25905;SDS011;13713;52.552;13.204;2024-01-07T00:24:23;14.63;;;8.48;;
25905;SDS011;13713;52.552;13.204;2024-01-07T00:26:51;15.38;;;9.05;;
25905;SDS011;13713;52.552;13.204;2024-01-07T00:29:16;16.02;;;9.32;;
25905;SDS011;13713;52.552;13.204;2024-01-07T00:31:42;14.70;;;8.63;;
25905;SDS011;13713;52.552;13.204;2024-01-07T00:34:08;13.77;;;8.05;;
25905;SDS011;13713;52.552;13.204;2024-01-07T00:36:33;15.57;;;8.48;;
25905;SDS011;13713;52.552;13.204;2024-01-07T00:38:59;14.57;;;8.30;;
25905;SDS011;13713;52.552;13.204;2024-01-07T00:41:25;15.02;;;8.77;;
25905;SDS011;13713;52.552;13.204;2024-01-07T00:43:50;14.50;;;8.20;;
25905;SDS011;13713;52.552;13.204;2024-01-07T00:46:16;16.73;;;8.30;;
25905;SDS011;13713;52.552;13.204;2024-01-07T00:48:42;15.18;;;8.65;;
25905;SDS011;13713;52.552;13.204;2024-01-07T00:51:07;16.30;;;7.90;;
25905;SDS011;13713;52.552;13.204;2024-01-07T00:53:33;14.45;;;8.32;;
25905;SDS011;13713;52.552;13.204;2024-01-07T00:55:59;13.98;;;8.05;;
25905;SDS011;13713;52.552;13.204;2024-01-07T00:58:25;13.35;;;7.47;;
25905;SDS011;13713;52.552;13.204;2024-01-07T01:00:50;12.75;;;7.78;;
25905;SDS011;13713;52.552;13.204;2024-01-07T01:03:19;14.80;;;8.40;;
25905;SDS011;13713;52.552;13.204;2024-01-07T01:05:45;15.32;;;7.88;;
25905;SDS011;13713;52.552;13.204;2024-01-07T01:08:10;14.85;;;8.45;;
25905;SDS011;13713;52.552;13.204;2024-01-07T01:10:36;14.48;;;8.48;;
25905;SDS011;13713;52.552;13.204;2024-01-07T01:13:02;13.25;;;7.72;;
25905;SDS011;13713;52.552;13.204;2024-01-07T01:15:28;12.88;;;7.90;;
25905;SDS011;13713;52.552;13.204;2024-01-07T01:17:53;13.52;;;7.65;;
25905;SDS011;13713;52.552;13.204;2024-01-07T01:20:19;12.30;;;7.47;;
25905;SDS011;13713;52.552;13.204;2024-01-07T01:22:45;13.15;;;7.55;;
25905;SDS011;13713;52.552;13.204;2024-01-07T01:25:10;12.63;;;7.20;;
25905;SDS011;13713;52.552;13.204;2024-01-07T01:27:36;14.07;;;7.55;;
25905;SDS011;13713;52.552;13.204;2024-01-07T01:30:02;12.25;;;6.97;;
25905;SDS011;13713;52.552;13.204;2024-01-07T01:32:28;16.08;;;8.15;;
25905;SDS011;13713;52.552;13.204;2024-01-07T01:34:54;12.30;;;7.07;;
25905;SDS011;13713;52.552;13.204;2024-01-07T01:37:20;13.73;;;7.25;;
25905;SDS011;13713;52.552;13.204;2024-01-07T01:39:45;12.65;;;7.07;;
25905;SDS011;13713;52.552;13.204;2024-01-07T01:42:11;13.55;;;7.30;;
25905;SDS011;13713;52.552;13.204;2024-01-07T01:44:37;13.35;;;7.75;;
25905;SDS011;13713;52.552;13.204;2024-01-07T01:47:02;10.27;;;6.28;;
25905;SDS011;13713;52.552;13.204;2024-01-07T01:49:32;12.80;;;7.25;;
25905;SDS011;13713;52.552;13.204;2024-01-07T01:51:57;11.07;;;6.70;;
25905;SDS011;13713;52.552;13.204;2024-01-07T01:54:23;10.10;;;5.82;;
25905;SDS011;13713;52.552;13.204;2024-01-07T01:56:49;12.30;;;7.07;;
25905;SDS011;13713;52.552;13.204;2024-01-07T01:59:16;12.13;;;6.15;;
25905;SDS011;13713;52.552;13.204;2024-01-07T02:01:42;12.35;;;6.85;;
25905;SDS011;13713;52.552;13.204;2024-01-07T02:04:09;10.52;;;6.32;;
25905;SDS011;13713;52.552;13.204;2024-01-07T02:06:35;12.25;;;6.53;;
25905;SDS011;13713;52.552;13.204;2024-01-07T02:09:01;11.32;;;6.40;;
25905;SDS011;13713;52.552;13.204;2024-01-07T02:11:27;11.55;;;6.70;;
25905;SDS011;13713;52.552;13.204;2024-01-07T02:13:53;10.98;;;6.50;;
25905;SDS011;13713;52.552;13.204;2024-01-07T02:16:18;11.65;;;6.53;;
25905;SDS011;13713;52.552;13.204;2024-01-07T02:18:45;10.45;;;5.90;;
25905;SDS011;13713;52.552;13.204;2024-01-07T02:21:12;11.73;;;6.55;;
25905;SDS011;13713;52.552;13.204;2024-01-07T02:23:38;13.13;;;6.65;;
25905;SDS011;13713;52.552;13.204;2024-01-07T02:26:04;12.73;;;6.78;;
25905;SDS011;13713;52.552;13.204;2024-01-07T02:28:31;9.48;;;6.40;;
25905;SDS011;13713;52.552;13.204;2024-01-07T02:30:57;10.55;;;6.72;;
25905;SDS011;13713;52.552;13.204;2024-01-07T02:33:23;11.75;;;6.70;;
25905;SDS011;13713;52.552;13.204;2024-01-07T02:35:49;11.60;;;6.88;;
25905;SDS011;13713;52.552;13.204;2024-01-07T02:38:14;10.85;;;6.68;;
25905;SDS011;13713;52.552;13.204;2024-01-07T02:40:40;11.73;;;6.60;;
25905;SDS011;13713;52.552;13.204;2024-01-07T02:43:06;12.45;;;7.07;;
25905;SDS011;13713;52.552;13.204;2024-01-07T02:45:31;11.65;;;6.75;;
25905;SDS011;13713;52.552;13.204;2024-01-07T02:47:57;12.50;;;6.38;;
25905;SDS011;13713;52.552;13.204;2024-01-07T02:50:22;11.90;;;6.65;;
25905;SDS011;13713;52.552;13.204;2024-01-07T02:52:48;11.75;;;6.55;;
25905;SDS011;13713;52.552;13.204;2024-01-07T02:55:14;11.05;;;6.90;;
25905;SDS011;13713;52.552;13.204;2024-01-07T02:57:40;10.15;;;6.53;;
25905;SDS011;13713;52.552;13.204;2024-01-07T03:00:05;11.13;;;6.85;;
25905;SDS011;13713;52.552;13.204;2024-01-07T03:02:32;10.98;;;6.50;;
25905;SDS011;13713;52.552;13.204;2024-01-07T03:04:58;11.88;;;6.78;;
25905;SDS011;13713;52.552;13.204;2024-01-07T03:07:24;9.45;;;5.53;;
25905;SDS011;13713;52.552;13.204;2024-01-07T03:09:50;10.43;;;6.30;;
25905;SDS011;13713;52.552;13.204;2024-01-07T03:12:16;11.23;;;6.70;;
25905;SDS011;13713;52.552;13.204;2024-01-07T03:14:42;10.52;;;6.50;;
25905;SDS011;13713;52.552;13.204;2024-01-07T03:17:09;12.68;;;6.82;;
25905;SDS011;13713;52.552;13.204;2024-01-07T03:19:35;9.98;;;6.28;;
25905;SDS011;13713;52.552;13.204;2024-01-07T03:22:02;11.20;;;6.55;;
25905;SDS011;13713;52.552;13.204;2024-01-07T03:24:28;11.50;;;7.05;;
25905;SDS011;13713;52.552;13.204;2024-01-07T03:26:54;10.40;;;6.38;;
25905;SDS011;13713;52.552;13.204;2024-01-07T03:29:20;10.05;;;5.90;;
25905;SDS011;13713;52.552;13.204;2024-01-07T03:31:45;10.75;;;6.55;;
25905;SDS011;13713;52.552;13.204;2024-01-07T03:34:11;10.82;;;6.50;;
25905;SDS011;13713;52.552;13.204;2024-01-07T03:36:37;12.70;;;6.25;;
25905;SDS011;13713;52.552;13.204;2024-01-07T03:39:03;11.02;;;6.70;;
25905;SDS011;13713;52.552;13.204;2024-01-07T03:41:28;11.52;;;6.20;;
25905;SDS011;13713;52.552;13.204;2024-01-07T03:43:54;11.40;;;6.95;;
25905;SDS011;13713;52.552;13.204;2024-01-07T03:46:22;11.40;;;6.22;;
25905;SDS011;13713;52.552;13.204;2024-01-07T03:48:48;10.13;;;6.03;;
25905;SDS011;13713;52.552;13.204;2024-01-07T03:51:13;9.38;;;6.00;;
25905;SDS011;13713;52.552;13.204;2024-01-07T03:53:39;9.30;;;6.07;;
25905;SDS011;13713;52.552;13.204;2024-01-07T03:56:05;11.00;;;6.10;;
25905;SDS011;13713;52.552;13.204;2024-01-07T03:58:31;10.05;;;6.25;;
25905;SDS011;13713;52.552;13.204;2024-01-07T04:00:56;9.13;;;6.20;;
25905;SDS011;13713;52.552;13.204;2024-01-07T04:03:22;11.55;;;6.72;;
25905;SDS011;13713;52.552;13.204;2024-01-07T04:05:48;10.82;;;6.68;;
25905;SDS011;13713;52.552;13.204;2024-01-07T04:08:13;10.63;;;5.82;;
25905;SDS011;13713;52.552;13.204;2024-01-07T04:10:41;9.98;;;5.63;;
25905;SDS011;13713;52.552;13.204;2024-01-07T04:13:06;11.18;;;6.10;;
25905;SDS011;13713;52.552;13.204;2024-01-07T04:15:33;10.13;;;6.40;;
25905;SDS011;13713;52.552;13.204;2024-01-07T04:18:01;11.20;;;5.85;;
25905;SDS011;13713;52.552;13.204;2024-01-07T04:20:28;11.10;;;6.10;;
25905;SDS011;13713;52.552;13.204;2024-01-07T04:22:54;10.18;;;5.85;;
25905;SDS011;13713;52.552;13.204;2024-01-07T04:25:19;9.88;;;5.95;;
25905;SDS011;13713;52.552;13.204;2024-01-07T04:27:45;9.30;;;5.72;;
25905;SDS011;13713;52.552;13.204;2024-01-07T04:30:10;10.05;;;6.30;;
25905;SDS011;13713;52.552;13.204;2024-01-07T04:32:36;9.48;;;5.63;;
25905;SDS011;13713;52.552;13.204;2024-01-07T04:35:02;10.00;;;6.03;;
25905;SDS011;13713;52.552;13.204;2024-01-07T04:37:28;9.95;;;5.65;;
25905;SDS011;13713;52.552;13.204;2024-01-07T04:39:53;11.43;;;6.13;;
25905;SDS011;13713;52.552;13.204;2024-01-07T04:42:19;10.30;;;6.18;;
25905;SDS011;13713;52.552;13.204;2024-01-07T04:44:45;9.48;;;6.13;;
25905;SDS011;13713;52.552;13.204;2024-01-07T04:50:08;8.73;;;5.47;;
25905;SDS011;13713;52.552;13.204;2024-01-07T04:52:34;11.98;;;6.30;;
25905;SDS011;13713;52.552;13.204;2024-01-07T04:55:00;10.38;;;5.75;;
25905;SDS011;13713;52.552;13.204;2024-01-07T04:57:25;10.23;;;6.10;;
25905;SDS011;13713;52.552;13.204;2024-01-07T04:59:51;9.25;;;5.85;;
25905;SDS011;13713;52.552;13.204;2024-01-07T05:02:17;8.13;;;5.45;;
25905;SDS011;13713;52.552;13.204;2024-01-07T05:04:43;9.30;;;5.72;;
25905;SDS011;13713;52.552;13.204;2024-01-07T05:07:09;10.88;;;5.75;;
25905;SDS011;13713;52.552;13.204;2024-01-07T05:09:34;11.32;;;5.82;;
25905;SDS011;13713;52.552;13.204;2024-01-07T05:12:00;10.15;;;5.82;;
25905;SDS011;13713;52.552;13.204;2024-01-07T05:14:26;10.10;;;5.90;;
25905;SDS011;13713;52.552;13.204;2024-01-07T05:16:53;11.07;;;6.22;;
25905;SDS011;13713;52.552;13.204;2024-01-07T05:19:19;10.30;;;5.82;;
25905;SDS011;13713;52.552;13.204;2024-01-07T05:21:45;10.98;;;6.72;;
25905;SDS011;13713;52.552;13.204;2024-01-07T05:24:11;8.43;;;5.57;;
25905;SDS011;13713;52.552;13.204;2024-01-07T05:26:41;9.20;;;5.22;;
25905;SDS011;13713;52.552;13.204;2024-01-07T05:31:34;10.25;;;6.40;;
25905;SDS011;13713;52.552;13.204;2024-01-07T05:34:00;7.85;;;5.25;;
25905;SDS011;13713;52.552;13.204;2024-01-07T05:36:25;9.50;;;6.18;;
25905;SDS011;13713;52.552;13.204;2024-01-07T05:38:51;8.85;;;5.80;;
25905;SDS011;13713;52.552;13.204;2024-01-07T05:41:17;10.57;;;5.63;;
25905;SDS011;13713;52.552;13.204;2024-01-07T05:43:42;9.57;;;6.20;;
25905;SDS011;13713;52.552;13.204;2024-01-07T05:46:08;9.45;;;5.82;;
25905;SDS011;13713;52.552;13.204;2024-01-07T05:48:47;10.30;;;6.70;;
25905;SDS011;13713;52.552;13.204;2024-01-07T05:51:14;10.02;;;6.00;;
25905;SDS011;13713;52.552;13.204;2024-01-07T05:53:40;9.75;;;5.82;;
25905;SDS011;13713;52.552;13.204;2024-01-07T05:56:06;10.00;;;6.20;;
25905;SDS011;13713;52.552;13.204;2024-01-07T05:58:32;9.15;;;5.50;;
25905;SDS011;13713;52.552;13.204;2024-01-07T06:00:58;8.73;;;5.55;;
25905;SDS011;13713;52.552;13.204;2024-01-07T06:03:25;9.70;;;5.57;;
25905;SDS011;13713;52.552;13.204;2024-01-07T06:05:51;11.50;;;5.65;;
25905;SDS011;13713;52.552;13.204;2024-01-07T06:08:17;10.35;;;5.85;;
25905;SDS011;13713;52.552;13.204;2024-01-07T06:10:42;10.27;;;6.30;;
25905;SDS011;13713;52.552;13.204;2024-01-07T06:13:08;9.13;;;5.22;;
25905;SDS011;13713;52.552;13.204;2024-01-07T06:15:34;10.27;;;5.72;;
25905;SDS011;13713;52.552;13.204;2024-01-07T06:18:00;9.93;;;5.53;;
25905;SDS011;13713;52.552;13.204;2024-01-07T06:20:25;8.93;;;5.28;;
25905;SDS011;13713;52.552;13.204;2024-01-07T06:22:51;10.10;;;5.95;;
25905;SDS011;13713;52.552;13.204;2024-01-07T06:25:17;10.55;;;6.20;;
25905;SDS011;13713;52.552;13.204;2024-01-07T06:27:42;10.50;;;6.18;;
25905;SDS011;13713;52.552;13.204;2024-01-07T06:30:08;9.15;;;5.53;;
25905;SDS011;13713;52.552;13.204;2024-01-07T06:32:34;10.30;;;5.93;;
25905;SDS011;13713;52.552;13.204;2024-01-07T06:35:00;10.68;;;6.30;;
25905;SDS011;13713;52.552;13.204;2024-01-07T06:37:28;8.65;;;5.45;;
25905;SDS011;13713;52.552;13.204;2024-01-07T06:39:55;8.98;;;6.10;;
25905;SDS011;13713;52.552;13.204;2024-01-07T06:42:21;9.98;;;5.90;;
25905;SDS011;13713;52.552;13.204;2024-01-07T06:44:47;11.70;;;5.90;;
25905;SDS011;13713;52.552;13.204;2024-01-07T06:47:13;10.35;;;6.40;;
25905;SDS011;13713;52.552;13.204;2024-01-07T06:49:39;11.18;;;5.70;;
25905;SDS011;13713;52.552;13.204;2024-01-07T06:52:05;7.28;;;4.97;;
25905;SDS011;13713;52.552;13.204;2024-01-07T06:54:31;9.00;;;6.20;;
25905;SDS011;13713;52.552;13.204;2024-01-07T06:56:57;10.30;;;6.40;;
25905;SDS011;13713;52.552;13.204;2024-01-07T06:59:22;9.20;;;6.05;;
25905;SDS011;13713;52.552;13.204;2024-01-07T07:01:48;9.65;;;5.68;;
25905;SDS011;13713;52.552;13.204;2024-01-07T07:04:13;10.45;;;6.15;;
25905;SDS011;13713;52.552;13.204;2024-01-07T07:06:39;10.70;;;5.97;;
25905;SDS011;13713;52.552;13.204;2024-01-07T07:09:05;9.55;;;5.18;;
25905;SDS011;13713;52.552;13.204;2024-01-07T07:11:31;9.52;;;5.97;;
25905;SDS011;13713;52.552;13.204;2024-01-07T07:13:57;8.88;;;5.75;;
25905;SDS011;13713;52.552;13.204;2024-01-07T07:16:23;8.65;;;5.60;;
25905;SDS011;13713;52.552;13.204;2024-01-07T07:18:48;9.05;;;5.95;;
25905;SDS011;13713;52.552;13.204;2024-01-07T07:21:14;10.73;;;5.90;;
25905;SDS011;13713;52.552;13.204;2024-01-07T07:23:40;9.05;;;5.80;;
25905;SDS011;13713;52.552;13.204;2024-01-07T07:26:07;9.95;;;6.40;;
25905;SDS011;13713;52.552;13.204;2024-01-07T07:28:33;10.43;;;6.28;;
25905;SDS011;13713;52.552;13.204;2024-01-07T07:30:59;10.27;;;6.35;;
25905;SDS011;13713;52.552;13.204;2024-01-07T07:33:24;9.20;;;5.88;;
25905;SDS011;13713;52.552;13.204;2024-01-07T07:35:50;9.40;;;5.45;;
25905;SDS011;13713;52.552;13.204;2024-01-07T07:38:16;10.35;;;5.80;;
25905;SDS011;13713;52.552;13.204;2024-01-07T07:40:41;11.48;;;6.32;;
25905;SDS011;13713;52.552;13.204;2024-01-07T07:43:07;9.80;;;5.90;;
25905;SDS011;13713;52.552;13.204;2024-01-07T07:45:33;10.75;;;6.85;;
25905;SDS011;13713;52.552;13.204;2024-01-07T07:47:59;10.13;;;6.05;;
25905;SDS011;13713;52.552;13.204;2024-01-07T07:50:25;8.52;;;5.53;;
25905;SDS011;13713;52.552;13.204;2024-01-07T07:52:50;9.48;;;6.13;;
25905;SDS011;13713;52.552;13.204;2024-01-07T07:55:16;10.65;;;6.07;;
25905;SDS011;13713;52.552;13.204;2024-01-07T07:57:42;10.57;;;5.78;;
25905;SDS011;13713;52.552;13.204;2024-01-07T08:00:08;8.38;;;5.45;;
25905;SDS011;13713;52.552;13.204;2024-01-07T08:05:06;8.90;;;4.97;;
25905;SDS011;13713;52.552;13.204;2024-01-07T08:07:32;8.77;;;5.93;;
25905;SDS011;13713;52.552;13.204;2024-01-07T08:09:58;8.60;;;5.20;;
25905;SDS011;13713;52.552;13.204;2024-01-07T08:12:23;9.73;;;5.60;;
25905;SDS011;13713;52.552;13.204;2024-01-07T08:14:49;8.93;;;5.95;;
25905;SDS011;13713;52.552;13.204;2024-01-07T08:17:15;9.57;;;5.68;;
25905;SDS011;13713;52.552;13.204;2024-01-07T08:19:41;10.38;;;5.93;;
25905;SDS011;13713;52.552;13.204;2024-01-07T08:22:06;10.48;;;6.03;;
25905;SDS011;13713;52.552;13.204;2024-01-07T08:24:33;9.40;;;5.50;;
25905;SDS011;13713;52.552;13.204;2024-01-07T08:26:59;9.18;;;5.10;;
25905;SDS011;13713;52.552;13.204;2024-01-07T08:29:26;9.60;;;6.18;;
25905;SDS011;13713;52.552;13.204;2024-01-07T08:31:51;11.18;;;6.60;;
25905;SDS011;13713;52.552;13.204;2024-01-07T08:34:17;10.23;;;6.20;;
25905;SDS011;13713;52.552;13.204;2024-01-07T08:36:43;9.65;;;5.60;;
25905;SDS011;13713;52.552;13.204;2024-01-07T08:39:09;8.98;;;6.35;;
25905;SDS011;13713;52.552;13.204;2024-01-07T08:41:35;9.32;;;5.78;;
25905;SDS011;13713;52.552;13.204;2024-01-07T08:44:01;9.50;;;5.80;;
25905;SDS011;13713;52.552;13.204;2024-01-07T08:46:27;9.15;;;5.95;;
25905;SDS011;13713;52.552;13.204;2024-01-07T08:48:52;7.88;;;5.43;;
25905;SDS011;13713;52.552;13.204;2024-01-07T08:51:18;10.18;;;5.82;;
25905;SDS011;13713;52.552;13.204;2024-01-07T08:53:44;9.90;;;5.60;;
25905;SDS011;13713;52.552;13.204;2024-01-07T08:56:11;9.88;;;6.18;;
25905;SDS011;13713;52.552;13.204;2024-01-07T08:58:37;9.52;;;5.60;;
25905;SDS011;13713;52.552;13.204;2024-01-07T09:01:05;10.27;;;6.40;;
25905;SDS011;13713;52.552;13.204;2024-01-07T09:03:30;8.13;;;5.10;;
25905;SDS011;13713;52.552;13.204;2024-01-07T09:05:56;9.50;;;5.80;;
25905;SDS011;13713;52.552;13.204;2024-01-07T09:08:22;9.50;;;5.93;;
25905;SDS011;13713;52.552;13.204;2024-01-07T09:10:47;10.93;;;6.45;;
25905;SDS011;13713;52.552;13.204;2024-01-07T09:13:13;11.00;;;6.30;;
25905;SDS011;13713;52.552;13.204;2024-01-07T09:15:39;10.15;;;6.10;;
25905;SDS011;13713;52.552;13.204;2024-01-07T09:18:04;8.82;;;5.65;;
25905;SDS011;13713;52.552;13.204;2024-01-07T09:20:30;8.98;;;5.63;;
25905;SDS011;13713;52.552;13.204;2024-01-07T09:22:56;8.52;;;5.93;;
25905;SDS011;13713;52.552;13.204;2024-01-07T09:25:22;10.30;;;5.60;;
25905;SDS011;13713;52.552;13.204;2024-01-07T09:27:47;9.32;;;6.15;;
25905;SDS011;13713;52.552;13.204;2024-01-07T09:30:13;9.52;;;6.25;;
25905;SDS011;13713;52.552;13.204;2024-01-07T09:32:42;9.07;;;5.45;;
25905;SDS011;13713;52.552;13.204;2024-01-07T09:35:08;10.15;;;6.07;;
25905;SDS011;13713;52.552;13.204;2024-01-07T09:37:34;10.43;;;6.25;;
25905;SDS011;13713;52.552;13.204;2024-01-07T09:40:03;11.15;;;5.85;;
25905;SDS011;13713;52.552;13.204;2024-01-07T09:42:32;8.40;;;5.88;;
25905;SDS011;13713;52.552;13.204;2024-01-07T09:44:59;9.73;;;6.07;;
25905;SDS011;13713;52.552;13.204;2024-01-07T09:47:28;10.18;;;6.18;;
25905;SDS011;13713;52.552;13.204;2024-01-07T09:49:54;10.77;;;6.80;;
25905;SDS011;13713;52.552;13.204;2024-01-07T09:52:20;10.55;;;6.30;;
25905;SDS011;13713;52.552;13.204;2024-01-07T09:54:47;9.85;;;5.53;;
25905;SDS011;13713;52.552;13.204;2024-01-07T09:57:16;10.00;;;5.90;;
25905;SDS011;13713;52.552;13.204;2024-01-07T09:59:42;10.65;;;5.97;;
25905;SDS011;13713;52.552;13.204;2024-01-07T10:02:08;9.82;;;6.10;;
25905;SDS011;13713;52.552;13.204;2024-01-07T10:04:34;11.45;;;6.60;;
25905;SDS011;13713;52.552;13.204;2024-01-07T10:07:00;9.65;;;6.55;;
25905;SDS011;13713;52.552;13.204;2024-01-07T10:09:29;9.68;;;6.22;;
25905;SDS011;13713;52.552;13.204;2024-01-07T10:11:57;10.13;;;5.72;;
25905;SDS011;13713;52.552;13.204;2024-01-07T10:14:23;9.00;;;5.95;;
25905;SDS011;13713;52.552;13.204;2024-01-07T10:16:52;10.27;;;6.25;;
25905;SDS011;13713;52.552;13.204;2024-01-07T10:19:19;9.45;;;6.22;;
25905;SDS011;13713;52.552;13.204;2024-01-07T10:21:46;12.13;;;6.13;;
25905;SDS011;13713;52.552;13.204;2024-01-07T10:24:12;8.75;;;5.57;;
25905;SDS011;13713;52.552;13.204;2024-01-07T10:26:39;9.63;;;6.22;;
25905;SDS011;13713;52.552;13.204;2024-01-07T10:29:05;9.38;;;6.47;;
25905;SDS011;13713;52.552;13.204;2024-01-07T10:31:33;11.02;;;6.47;;
25905;SDS011;13713;52.552;13.204;2024-01-07T10:33:59;9.23;;;6.00;;
25905;SDS011;13713;52.552;13.204;2024-01-07T10:36:25;9.80;;;6.25;;
25905;SDS011;13713;52.552;13.204;2024-01-07T10:38:51;9.30;;;6.00;;
25905;SDS011;13713;52.552;13.204;2024-01-07T10:41:18;8.32;;;5.28;;
25905;SDS011;13713;52.552;13.204;2024-01-07T10:43:46;9.73;;;6.07;;
25905;SDS011;13713;52.552;13.204;2024-01-07T10:46:13;9.98;;;6.07;;
25905;SDS011;13713;52.552;13.204;2024-01-07T10:48:43;9.77;;;6.13;;
25905;SDS011;13713;52.552;13.204;2024-01-07T10:51:28;9.25;;;5.45;;
25905;SDS011;13713;52.552;13.204;2024-01-07T10:53:58;9.52;;;5.85;;
25905;SDS011;13713;52.552;13.204;2024-01-07T10:56:27;10.65;;;5.97;;
25905;SDS011;13713;52.552;13.204;2024-01-07T10:58:59;8.77;;;6.05;;
25905;SDS011;13713;52.552;13.204;2024-01-07T11:01:25;9.13;;;6.03;;
25905;SDS011;13713;52.552;13.204;2024-01-07T11:03:54;10.35;;;6.07;;
25905;SDS011;13713;52.552;13.204;2024-01-07T11:09:12;9.93;;;6.45;;
25905;SDS011;13713;52.552;13.204;2024-01-07T11:11:46;9.60;;;6.10;;
25905;SDS011;13713;52.552;13.204;2024-01-07T11:17:05;9.98;;;6.05;;
25905;SDS011;13713;52.552;13.204;2024-01-07T11:19:31;9.27;;;5.80;;
25905;SDS011;13713;52.552;13.204;2024-01-07T11:24:54;8.45;;;5.78;;
25905;SDS011;13713;52.552;13.204;2024-01-07T11:27:24;10.55;;;6.43;;
25905;SDS011;13713;52.552;13.204;2024-01-07T11:29:55;9.75;;;6.53;;
25905;SDS011;13713;52.552;13.204;2024-01-07T11:32:24;9.40;;;6.00;;
25905;SDS011;13713;52.552;13.204;2024-01-07T11:34:54;11.05;;;6.07;;
25905;SDS011;13713;52.552;13.204;2024-01-07T11:37:21;10.10;;;6.53;;
25905;SDS011;13713;52.552;13.204;2024-01-07T11:39:48;9.18;;;6.35;;
25905;SDS011;13713;52.552;13.204;2024-01-07T11:42:16;9.57;;;5.95;;
25905;SDS011;13713;52.552;13.204;2024-01-07T11:44:49;10.45;;;6.35;;
25905;SDS011;13713;52.552;13.204;2024-01-07T11:47:21;9.30;;;6.20;;
25905;SDS011;13713;52.552;13.204;2024-01-07T11:49:48;10.25;;;6.85;;
25905;SDS011;13713;52.552;13.204;2024-01-07T11:52:16;10.15;;;6.53;;
25905;SDS011;13713;52.552;13.204;2024-01-07T11:54:42;10.07;;;6.28;;
25905;SDS011;13713;52.552;13.204;2024-01-07T11:57:08;10.52;;;6.50;;
25905;SDS011;13713;52.552;13.204;2024-01-07T11:59:35;9.25;;;6.30;;
25905;SDS011;13713;52.552;13.204;2024-01-07T12:02:04;9.45;;;6.15;;
25905;SDS011;13713;52.552;13.204;2024-01-07T12:04:31;9.23;;;6.15;;
25905;SDS011;13713;52.552;13.204;2024-01-07T12:06:59;8.32;;;5.88;;
25905;SDS011;13713;52.552;13.204;2024-01-07T12:09:26;11.93;;;6.57;;
25905;SDS011;13713;52.552;13.204;2024-01-07T12:11:52;10.20;;;6.18;;
25905;SDS011;13713;52.552;13.204;2024-01-07T12:14:19;11.02;;;6.80;;
25905;SDS011;13713;52.552;13.204;2024-01-07T12:16:45;9.63;;;5.72;;
25905;SDS011;13713;52.552;13.204;2024-01-07T12:19:12;9.05;;;6.20;;
25905;SDS011;13713;52.552;13.204;2024-01-07T12:21:38;8.98;;;5.88;;
25905;SDS011;13713;52.552;13.204;2024-01-07T12:24:04;9.05;;;5.97;;
25905;SDS011;13713;52.552;13.204;2024-01-07T12:26:30;9.98;;;5.90;;
25905;SDS011;13713;52.552;13.204;2024-01-07T12:28:59;11.00;;;6.28;;
25905;SDS011;13713;52.552;13.204;2024-01-07T12:31:29;9.38;;;6.32;;
25905;SDS011;13713;52.552;13.204;2024-01-07T12:33:56;9.63;;;6.22;;
25905;SDS011;13713;52.552;13.204;2024-01-07T12:36:22;10.13;;;6.63;;
25905;SDS011;13713;52.552;13.204;2024-01-07T12:38:48;9.07;;;5.97;;
25905;SDS011;13713;52.552;13.204;2024-01-07T12:41:15;10.80;;;6.68;;
25905;SDS011;13713;52.552;13.204;2024-01-07T12:43:40;9.88;;;6.25;;
25905;SDS011;13713;52.552;13.204;2024-01-07T12:46:06;9.88;;;6.45;;
25905;SDS011;13713;52.552;13.204;2024-01-07T12:48:32;9.60;;;6.38;;
25905;SDS011;13713;52.552;13.204;2024-01-07T12:51:00;9.10;;;6.50;;
25905;SDS011;13713;52.552;13.204;2024-01-07T12:53:26;9.25;;;6.10;;
25905;SDS011;13713;52.552;13.204;2024-01-07T12:55:52;10.23;;;6.20;;
25905;SDS011;13713;52.552;13.204;2024-01-07T12:58:18;9.15;;;6.18;;
25905;SDS011;13713;52.552;13.204;2024-01-07T13:00:46;10.07;;;6.72;;
25905;SDS011;13713;52.552;13.204;2024-01-07T13:03:11;11.55;;;7.35;;
25905;SDS011;13713;52.552;13.204;2024-01-07T13:05:45;10.57;;;6.35;;
25905;SDS011;13713;52.552;13.204;2024-01-07T13:08:15;10.50;;;6.63;;
25905;SDS011;13713;52.552;13.204;2024-01-07T13:10:43;9.90;;;5.90;;
25905;SDS011;13713;52.552;13.204;2024-01-07T13:13:09;10.02;;;6.32;;
25905;SDS011;13713;52.552;13.204;2024-01-07T13:15:37;9.10;;;5.95;;
25905;SDS011;13713;52.552;13.204;2024-01-07T13:18:03;9.52;;;6.60;;
25905;SDS011;13713;52.552;13.204;2024-01-07T13:20:29;10.18;;;6.55;;
25905;SDS011;13713;52.552;13.204;2024-01-07T13:22:54;10.50;;;6.22;;
25905;SDS011;13713;52.552;13.204;2024-01-07T13:25:20;8.98;;;5.82;;
25905;SDS011;13713;52.552;13.204;2024-01-07T13:27:46;10.60;;;6.50;;
25905;SDS011;13713;52.552;13.204;2024-01-07T13:30:12;8.80;;;5.57;;
25905;SDS011;13713;52.552;13.204;2024-01-07T13:32:37;9.05;;;6.22;;
25905;SDS011;13713;52.552;13.204;2024-01-07T13:35:04;10.43;;;6.40;;
25905;SDS011;13713;52.552;13.204;2024-01-07T13:37:35;9.93;;;5.90;;
25905;SDS011;13713;52.552;13.204;2024-01-07T13:40:01;8.55;;;5.82;;
25905;SDS011;13713;52.552;13.204;2024-01-07T13:42:28;9.25;;;6.03;;
25905;SDS011;13713;52.552;13.204;2024-01-07T13:44:54;8.85;;;6.00;;
25905;SDS011;13713;52.552;13.204;2024-01-07T13:47:20;9.05;;;6.18;;
25905;SDS011;13713;52.552;13.204;2024-01-07T13:49:46;10.05;;;6.25;;
25905;SDS011;13713;52.552;13.204;2024-01-07T13:52:12;8.30;;;5.65;;
25905;SDS011;13713;52.552;13.204;2024-01-07T13:54:38;9.27;;;5.65;;
25905;SDS011;13713;52.552;13.204;2024-01-07T13:57:04;9.73;;;6.22;;
25905;SDS011;13713;52.552;13.204;2024-01-07T13:59:30;9.77;;;5.88;;
25905;SDS011;13713;52.552;13.204;2024-01-07T14:01:55;9.32;;;6.38;;
25905;SDS011;13713;52.552;13.204;2024-01-07T14:04:24;10.80;;;7.05;;
25905;SDS011;13713;52.552;13.204;2024-01-07T14:06:53;9.82;;;6.90;;
25905;SDS011;13713;52.552;13.204;2024-01-07T14:09:21;9.20;;;5.72;;
25905;SDS011;13713;52.552;13.204;2024-01-07T14:11:46;10.57;;;6.78;;
25905;SDS011;13713;52.552;13.204;2024-01-07T14:14:12;8.68;;;5.70;;
25905;SDS011;13713;52.552;13.204;2024-01-07T14:16:37;8.32;;;5.72;;
25905;SDS011;13713;52.552;13.204;2024-01-07T14:19:05;9.25;;;6.05;;
25905;SDS011;13713;52.552;13.204;2024-01-07T14:21:31;10.27;;;6.03;;
25905;SDS011;13713;52.552;13.204;2024-01-07T14:23:57;8.35;;;5.65;;
25905;SDS011;13713;52.552;13.204;2024-01-07T14:26:22;9.20;;;5.97;;
25905;SDS011;13713;52.552;13.204;2024-01-07T14:28:49;9.85;;;6.43;;
25905;SDS011;13713;52.552;13.204;2024-01-07T14:31:15;9.13;;;5.85;;
25905;SDS011;13713;52.552;13.204;2024-01-07T14:33:42;9.35;;;6.00;;
25905;SDS011;13713;52.552;13.204;2024-01-07T14:36:08;9.15;;;6.38;;
25905;SDS011;13713;52.552;13.204;2024-01-07T14:38:41;8.52;;;5.85;;